createdAt,value
2018-09-27T00:00:14.089Z,99.90
2018-09-27T00:02:42.979Z,99.90
2018-09-27T00:05:11.928Z,99.90
2018-09-27T00:07:40.763Z,99.90
2018-09-27T00:10:09.994Z,99.90
2018-09-27T00:12:38.897Z,99.90
2018-09-27T00:15:07.765Z,99.90
2018-09-27T00:17:36.831Z,99.90
2018-09-27T00:20:05.705Z,99.90
2018-09-27T00:22:34.519Z,99.90
2018-09-27T00:25:03.623Z,99.90
2018-09-27T00:27:32.412Z,99.90
2018-09-27T00:30:01.147Z,99.90
2018-09-27T00:32:30.477Z,99.90
2018-09-27T00:34:59.180Z,99.90
2018-09-27T00:37:27.958Z,99.90
2018-09-27T00:39:56.845Z,99.90
2018-09-27T00:42:25.707Z,99.90
2018-09-27T00:44:54.576Z,99.90
2018-09-27T00:47:23.978Z,99.90
2018-09-27T00:49:52.681Z,99.90
2018-09-27T00:52:21.666Z,99.90
2018-09-27T00:54:50.706Z,99.90
2018-09-27T00:57:19.480Z,99.90
2018-09-27T00:59:48.234Z,99.90
2018-09-27T01:02:17.003Z,99.90
2018-09-27T01:04:45.864Z,99.90
2018-09-27T01:07:14.590Z,99.90
2018-09-27T01:09:43.654Z,99.90
2018-09-27T01:12:12.507Z,99.90
2018-09-27T01:14:41.209Z,99.90
2018-09-27T01:17:10.036Z,99.90
2018-09-27T01:19:38.816Z,99.90
2018-09-27T01:22:07.645Z,99.90
2018-09-27T01:24:36.658Z,99.90
2018-09-27T01:27:05.480Z,99.90
2018-09-27T01:29:34.297Z,99.90
2018-09-27T01:32:03.116Z,99.90
2018-09-27T01:34:31.872Z,99.90
2018-09-27T01:37:00.628Z,99.90
2018-09-27T01:39:29.377Z,99.90
2018-09-27T01:41:58.167Z,99.90
2018-09-27T01:44:27.021Z,99.90
2018-09-27T01:46:56.111Z,99.90
2018-09-27T01:49:24.955Z,99.90
2018-09-27T01:51:53.779Z,99.90
2018-09-27T01:54:22.523Z,99.90
2018-09-27T01:56:51.275Z,99.90
2018-09-27T01:59:19.996Z,99.90
2018-09-27T02:01:48.691Z,99.90
2018-09-27T02:04:17.413Z,99.90
2018-09-27T02:06:46.119Z,99.90
2018-09-27T02:09:15.152Z,99.90
2018-09-27T02:11:43.958Z,99.90
2018-09-27T02:14:12.717Z,99.90
2018-09-27T02:16:41.732Z,99.90
2018-09-27T02:19:10.491Z,99.90
2018-09-27T02:21:39.143Z,99.90
2018-09-27T02:24:07.880Z,99.90
2018-09-27T02:26:36.540Z,99.90
2018-09-27T02:29:05.304Z,99.90
2018-09-27T02:31:34.048Z,99.90
2018-09-27T02:34:02.759Z,99.90
2018-09-27T02:36:31.622Z,99.90
2018-09-27T02:39:00.293Z,99.90
2018-09-27T02:41:29.103Z,99.90
2018-09-27T02:43:57.808Z,99.90
2018-09-27T02:46:26.971Z,99.90
2018-09-27T02:48:55.753Z,99.90
2018-09-27T02:51:24.442Z,99.90
2018-09-27T02:53:53.143Z,99.90
2018-09-27T02:56:21.888Z,99.90
2018-09-27T02:58:50.856Z,99.90
2018-09-27T03:01:20.024Z,99.90
2018-09-27T03:03:48.768Z,99.90
2018-09-27T03:06:17.489Z,99.90
2018-09-27T03:08:46.338Z,99.90
2018-09-27T03:11:15.173Z,99.90
2018-09-27T03:13:43.947Z,99.90
2018-09-27T03:16:13.019Z,99.90
2018-09-27T03:18:41.709Z,99.90
2018-09-27T03:21:11.187Z,99.90
2018-09-27T03:23:39.880Z,99.90
2018-09-27T03:26:08.535Z,99.90
2018-09-27T03:28:37.203Z,99.90
2018-09-27T03:31:06.059Z,99.90
2018-09-27T03:33:34.794Z,99.90
2018-09-27T03:36:03.545Z,99.90
2018-09-27T03:38:32.552Z,99.90
2018-09-27T03:41:01.345Z,99.90
2018-09-27T03:43:30.258Z,99.90
2018-09-27T03:45:59.312Z,99.90
2018-09-27T03:48:28.129Z,99.90
2018-09-27T03:50:56.846Z,99.90
2018-09-27T03:53:25.595Z,99.90
2018-09-27T03:55:54.344Z,99.90
2018-09-27T03:58:23.077Z,99.90
2018-09-27T04:00:51.838Z,99.90
2018-09-27T04:03:20.657Z,99.90
2018-09-27T04:05:49.330Z,99.90
2018-09-27T04:08:18.082Z,99.90
2018-09-27T04:10:46.852Z,99.90
2018-09-27T04:13:15.573Z,99.90
2018-09-27T04:15:44.438Z,99.90
2018-09-27T04:18:13.099Z,99.90
2018-09-27T04:20:46.935Z,99.90
2018-09-27T04:23:15.808Z,99.90
2018-09-27T04:25:44.564Z,99.90
2018-09-27T04:28:13.217Z,99.90
2018-09-27T04:30:41.982Z,99.90
2018-09-27T04:33:10.950Z,99.90
2018-09-27T04:35:39.869Z,99.90
2018-09-27T04:38:08.565Z,99.90
2018-09-27T04:40:37.411Z,99.90
2018-09-27T04:43:06.251Z,99.90
2018-09-27T04:45:34.986Z,99.90
2018-09-27T04:48:05.274Z,99.90
2018-09-27T04:50:34.271Z,99.90
2018-09-27T04:53:03.229Z,99.90
2018-09-27T04:55:31.974Z,99.90
2018-09-27T04:58:00.953Z,99.90
2018-09-27T05:00:29.708Z,99.90
2018-09-27T05:52:02.314Z,99.90
2018-09-27T05:57:46.554Z,99.90
2018-09-27T06:34:21.742Z,99.90
2018-09-27T06:55:31.678Z,99.90
2018-09-27T07:07:25.450Z,99.90
2018-09-27T07:10:10.759Z,99.90
2018-09-27T07:16:08.743Z,99.90
2018-09-27T07:19:19.589Z,99.90
2018-09-27T07:47:18.189Z,99.90
2018-09-27T07:49:56.534Z,99.90
2018-09-27T07:52:52.121Z,99.90
2018-09-27T08:02:47.612Z,99.90
2018-09-27T08:14:31.978Z,99.90
2018-09-27T08:17:24.086Z,99.90
2018-09-27T08:38:15.361Z,98.00
2018-09-27T08:47:07.101Z,97.60
2018-09-27T08:50:02.209Z,97.30
2018-09-27T09:07:53.059Z,95.80
2018-09-27T09:10:46.836Z,93.90
2018-09-27T09:16:23.539Z,94.20
2018-09-27T09:26:49.838Z,94.80
2018-09-27T09:35:35.028Z,96.40
2018-09-27T09:53:49.605Z,95.90
2018-09-27T09:56:32.350Z,96.00
2018-09-27T09:59:02.277Z,96.00
2018-09-27T10:01:31.557Z,95.70
2018-09-27T10:27:50.899Z,93.70
2018-09-27T10:33:39.140Z,92.40
2018-09-27T10:36:22.993Z,92.30
2018-09-27T10:42:07.061Z,91.70
2018-09-27T10:44:36.125Z,90.00
2018-09-27T10:50:06.083Z,90.00
2018-09-27T10:52:41.216Z,90.70
2018-09-27T10:55:31.770Z,91.30
2018-09-27T10:58:02.589Z,91.70
2018-09-27T11:01:01.904Z,91.40
2018-09-27T11:03:37.282Z,92.10
2018-09-27T11:12:29.020Z,91.40
2018-09-27T11:15:15.350Z,91.90
2018-09-27T11:17:45.443Z,91.60
2018-09-27T11:26:23.418Z,91.00
2018-09-27T11:38:41.919Z,90.10
2018-09-27T11:41:54.746Z,87.60
2018-09-27T11:44:23.891Z,86.70
2018-09-27T11:52:48.499Z,83.60
2018-09-27T11:55:17.873Z,83.60
2018-09-27T11:57:47.740Z,84.20
2018-09-27T12:03:03.897Z,85.90
2018-09-27T12:05:39.633Z,86.70
2018-09-27T12:08:16.523Z,87.20
2018-09-27T12:10:49.918Z,87.70
2018-09-27T12:13:24.778Z,87.50
2018-09-27T12:15:56.941Z,86.70
2018-09-27T12:18:28.699Z,86.90
2018-09-27T12:21:06.737Z,87.60
2018-09-27T12:23:40.560Z,88.20
2018-09-27T12:26:11.541Z,87.90
2018-09-27T12:28:45.246Z,88.10
2018-09-27T12:31:18.138Z,88.60
2018-09-27T12:33:49.783Z,87.80
2018-09-27T12:36:20.034Z,87.60
2018-09-27T12:38:49.702Z,88.70
2018-09-27T12:41:34.108Z,89.80
2018-09-27T12:44:03.773Z,89.80
2018-09-27T12:46:34.592Z,90.30
2018-09-27T12:49:05.560Z,90.20
2018-09-27T12:51:39.639Z,89.40
2018-09-27T12:54:11.150Z,90.40
2018-09-27T12:56:40.550Z,90.60
2018-09-27T12:59:10.420Z,89.00
2018-09-27T13:18:29.180Z,88.00
2018-09-27T13:20:58.458Z,87.50
2018-09-27T13:23:28.807Z,90.70
2018-09-27T13:25:57.816Z,90.30
2018-09-27T13:28:27.021Z,90.60
2018-09-27T13:30:57.360Z,92.20
2018-09-27T13:33:26.512Z,92.80
2018-09-27T13:35:55.505Z,93.50
2018-09-27T13:38:24.201Z,95.50
2018-09-27T13:49:45.290Z,93.20
2018-09-27T13:52:14.616Z,93.40
2018-09-27T13:54:44.182Z,94.30
2018-09-27T13:57:13.812Z,93.10
2018-09-27T13:59:43.008Z,91.90
2018-09-27T14:02:11.993Z,91.80
2018-09-27T14:04:40.884Z,92.20
2018-09-27T14:07:12.881Z,92.30
2018-09-27T14:52:50.265Z,99.90
2018-09-27T15:24:04.703Z,99.90
2018-09-27T15:35:40.124Z,99.90
2018-09-27T15:38:09.952Z,99.90
2018-09-27T15:40:43.132Z,99.90
2018-09-27T15:43:18.808Z,99.90
2018-09-27T15:45:51.506Z,99.90
2018-09-27T15:48:21.549Z,99.90
2018-09-27T15:50:50.851Z,99.90
2018-09-27T15:53:26.608Z,99.90
2018-09-27T15:55:55.843Z,99.90
2018-09-27T15:58:25.278Z,99.90
2018-09-27T16:00:54.879Z,99.90
2018-09-27T16:03:25.905Z,99.90
2018-09-27T16:05:58.143Z,99.90
2018-09-27T16:08:27.133Z,99.90
2018-09-27T16:10:56.710Z,99.90
2018-09-27T16:13:29.108Z,99.90
2018-09-27T16:15:59.930Z,99.90
2018-09-27T16:18:30.933Z,99.90
2018-09-27T16:20:59.735Z,99.90
2018-09-27T16:23:29.969Z,99.90
2018-09-27T16:25:59.161Z,99.90
2018-09-27T16:28:28.206Z,99.90
2018-09-27T16:30:57.102Z,99.90
2018-09-27T16:33:26.655Z,99.90
2018-09-27T16:36:01.122Z,99.90
2018-09-27T16:38:34.583Z,99.90
2018-09-27T16:53:30.730Z,99.90
2018-09-27T16:56:06.066Z,99.90
2018-09-27T16:58:40.962Z,99.90
2018-09-27T17:01:11.320Z,99.90
2018-09-27T17:13:05.253Z,99.90
2018-09-27T17:15:43.485Z,99.90
2018-09-27T17:18:18.264Z,99.90
2018-09-27T17:20:49.160Z,99.90
2018-09-27T17:23:22.027Z,99.90
2018-09-27T17:25:58.746Z,99.90
2018-09-27T17:31:34.298Z,99.90
2018-09-27T17:58:25.989Z,99.90
2018-09-27T18:01:00.917Z,99.90
2018-09-27T18:03:31.821Z,99.90
2018-09-27T18:12:17.581Z,99.90
2018-09-27T18:14:49.878Z,99.90
2018-09-27T18:17:21.181Z,99.90
2018-09-27T18:19:50.610Z,99.90
2018-09-27T18:22:23.084Z,99.90
2018-09-27T18:28:03.974Z,99.90
2018-09-27T18:30:43.024Z,99.90
2018-09-27T18:48:11.797Z,99.90
2018-09-27T23:43:06.302Z,99.90
